Deatsville, Kentucky
Current Conditions -  °F | °C
As of 2:56 PM on Saturday 25 Oct 2014 (Local Time) from KSDF Reporting Station
Few Clouds Few Clouds  
Wind Chill: 74°   Ceiling: Unl
Heat Index: 74°   Visibility: 10mi
Dew Point: 60°   Wind: 12mph
Humidity: 62%   Direction: 240°WSW
Pressure: 29.96"   Gusts: NA
Location:  37.9212°N, 85.4864°W
Report Text: KSDF 251856Z 24010KT 10SM FEW025 23/16 A2996 RMK AO2 SLP144 T02330156
Loading
Personal Weather Stations






























Interactive Weather Map New forecast layout! Learn more

10-Day Weather Forecast

Advertisements
Track Severe Weather on mobile